sensor_id;sensor_type;location;lat;lon;timestamp;pressure;altitude;pressure_sealevel;temperature;humidity
58927;BME280;44712;52.530;9.760;2022-09-16T00:00:50;100120.59;;;11.21;95.90
58927;BME280;44712;52.530;9.760;2022-09-16T00:03:17;100117.81;;;11.24;95.42
58927;BME280;44712;52.530;9.760;2022-09-16T00:05:47;100121.44;;;11.23;95.56
58927;BME280;44712;52.530;9.760;2022-09-16T00:08:15;100118.75;;;11.23;95.37
58927;BME280;44712;52.530;9.760;2022-09-16T00:10:42;100116.13;;;11.20;95.53
58927;BME280;44712;52.530;9.760;2022-09-16T00:13:13;100122.47;;;11.19;95.86
58927;BME280;44712;52.530;9.760;2022-09-16T00:15:42;100120.75;;;11.15;96.08
58927;BME280;44712;52.530;9.760;2022-09-16T00:18:09;100129.72;;;11.17;96.51
58927;BME280;44712;52.530;9.760;2022-09-16T00:20:43;100121.75;;;11.11;96.51
58927;BME280;44712;52.530;9.760;2022-09-16T00:23:09;100121.81;;;11.09;97.00
58927;BME280;44712;52.530;9.760;2022-09-16T00:25:36;100124.53;;;11.08;96.81
58927;BME280;44712;52.530;9.760;2022-09-16T00:28:03;100121.81;;;11.08;97.15
58927;BME280;44712;52.530;9.760;2022-09-16T00:30:29;100119.19;;;11.04;97.45
58927;BME280;44712;52.530;9.760;2022-09-16T00:32:56;100123.78;;;11.02;97.32
58927;BME280;44712;52.530;9.760;2022-09-16T00:35:23;100118.38;;;11.01;97.35
58927;BME280;44712;52.530;9.760;2022-09-16T00:37:49;100117.50;;;11.00;98.27
58927;BME280;44712;52.530;9.760;2022-09-16T00:40:16;100114.81;;;10.99;98.25
58927;BME280;44712;52.530;9.760;2022-09-16T00:42:43;100115.78;;;10.96;98.79
58927;BME280;44712;52.530;9.760;2022-09-16T00:45:15;100123.19;;;10.89;98.90
58927;BME280;44712;52.530;9.760;2022-09-16T00:47:47;100126.75;;;10.90;99.38
58927;BME280;44712;52.530;9.760;2022-09-16T00:50:22;100125.78;;;10.93;99.36
58927;BME280;44712;52.530;9.760;2022-09-16T00:52:52;100133.91;;;10.93;99.26
58927;BME280;44712;52.530;9.760;2022-09-16T00:55:23;100135.75;;;10.92;99.75
58927;BME280;44712;52.530;9.760;2022-09-16T00:57:52;100133.88;;;10.94;99.57
58927;BME280;44712;52.530;9.760;2022-09-16T01:00:20;100123.03;;;10.94;99.65
58927;BME280;44712;52.530;9.760;2022-09-16T01:02:48;100120.31;;;10.96;99.82
58927;BME280;44712;52.530;9.760;2022-09-16T01:05:19;100124.06;;;10.90;100.00
58927;BME280;44712;52.530;9.760;2022-09-16T01:07:49;100123.22;;;10.88;100.00
58927;BME280;44712;52.530;9.760;2022-09-16T01:10:21;100124.03;;;10.92;100.00
58927;BME280;44712;52.530;9.760;2022-09-16T01:13:04;100121.28;;;10.93;100.00
58927;BME280;44712;52.530;9.760;2022-09-16T01:21:17;100112.94;;;11.01;100.00
58927;BME280;44712;52.530;9.760;2022-09-16T01:24:01;100115.66;;;11.01;100.00
58927;BME280;44712;52.530;9.760;2022-09-16T01:32:25;100112.94;;;11.02;100.00
58927;BME280;44712;52.530;9.760;2022-09-16T01:35:18;100117.50;;;11.00;100.00
58927;BME280;44712;52.530;9.760;2022-09-16T01:38:15;100115.72;;;10.99;100.00
58927;BME280;44712;52.530;9.760;2022-09-16T01:40:58;100112.16;;;10.97;100.00
58927;BME280;44712;52.530;9.760;2022-09-16T01:43:39;100117.63;;;10.94;100.00
58927;BME280;44712;52.530;9.760;2022-09-16T01:48:47;100115.94;;;10.90;100.00
58927;BME280;44712;52.530;9.760;2022-09-16T01:54:02;100118.59;;;10.93;100.00
58927;BME280;44712;52.530;9.760;2022-09-16T01:56:52;100118.69;;;10.88;100.00
58927;BME280;44712;52.530;9.760;2022-09-16T01:59:48;100116.00;;;10.87;100.00
58927;BME280;44712;52.530;9.760;2022-09-16T02:02:20;100111.47;;;10.89;100.00
58927;BME280;44712;52.530;9.760;2022-09-16T02:04:54;100119.59;;;10.87;100.00
58927;BME280;44712;52.530;9.760;2022-09-16T02:07:26;100117.81;;;10.88;100.00
58927;BME280;44712;52.530;9.760;2022-09-16T02:09:57;100123.31;;;10.83;100.00
58927;BME280;44712;52.530;9.760;2022-09-16T02:12:31;100122.44;;;10.83;100.00
58927;BME280;44712;52.530;9.760;2022-09-16T02:15:04;100115.22;;;10.82;100.00
58927;BME280;44712;52.530;9.760;2022-09-16T02:17:37;100118.75;;;10.85;100.00
58927;BME280;44712;52.530;9.760;2022-09-16T02:20:09;100120.56;;;10.86;100.00
58927;BME280;44712;52.530;9.760;2022-09-16T02:22:48;100114.31;;;10.83;100.00
58927;BME280;44712;52.530;9.760;2022-09-16T02:25:17;100120.66;;;10.82;100.00
58927;BME280;44712;52.530;9.760;2022-09-16T02:27:46;100114.22;;;10.86;100.00
58927;BME280;44712;52.530;9.760;2022-09-16T02:30:17;100112.38;;;10.88;100.00
58927;BME280;44712;52.530;9.760;2022-09-16T02:32:46;100114.22;;;10.86;100.00
58927;BME280;44712;52.530;9.760;2022-09-16T02:35:19;100102.53;;;10.85;100.00
58927;BME280;44712;52.530;9.760;2022-09-16T02:37:57;100108.75;;;10.89;100.00
58927;BME280;44712;52.530;9.760;2022-09-16T02:40:29;100108.66;;;10.92;100.00
58927;BME280;44712;52.530;9.760;2022-09-16T02:42:59;100100.50;;;10.94;100.00
58927;BME280;44712;52.530;9.760;2022-09-16T02:46:15;100110.38;;;10.96;100.00
58927;BME280;44712;52.530;9.760;2022-09-16T02:48:35;100102.25;;;10.96;100.00
58927;BME280;44712;52.530;9.760;2022-09-16T02:54:04;100113.88;;;11.01;100.00
58927;BME280;44712;52.530;9.760;2022-09-16T02:56:38;100105.78;;;11.00;100.00
58927;BME280;44712;52.530;9.760;2022-09-16T02:59:07;100104.00;;;10.99;100.00
58927;BME280;44712;52.530;9.760;2022-09-16T03:01:39;100108.44;;;11.01;100.00
58927;BME280;44712;52.530;9.760;2022-09-16T03:04:08;100103.03;;;11.01;100.00
58927;BME280;44712;52.530;9.760;2022-09-16T03:06:35;100108.44;;;11.01;100.00
58927;BME280;44712;52.530;9.760;2022-09-16T03:09:05;100103.88;;;11.03;100.00
58927;BME280;44712;52.530;9.760;2022-09-16T03:20:20;100107.22;;;11.15;100.00
58927;BME280;44712;52.530;9.760;2022-09-16T03:26:10;100114.44;;;11.14;100.00
58927;BME280;44712;52.530;9.760;2022-09-16T03:31:38;100108.03;;;11.17;100.00
58927;BME280;44712;52.530;9.760;2022-09-16T03:34:43;100109.00;;;11.16;99.77
58927;BME280;44712;52.530;9.760;2022-09-16T03:37:14;100106.28;;;11.16;100.00
58927;BME280;44712;52.530;9.760;2022-09-16T03:39:47;100109.84;;;11.18;99.35
58927;BME280;44712;52.530;9.760;2022-09-16T03:42:16;100102.56;;;11.20;99.11
58927;BME280;44712;52.530;9.760;2022-09-16T03:44:48;100095.28;;;11.22;99.41
58927;BME280;44712;52.530;9.760;2022-09-16T03:47:15;100104.41;;;11.18;99.15
58927;BME280;44712;52.530;9.760;2022-09-16T03:49:42;100092.75;;;11.16;99.58
58927;BME280;44712;52.530;9.760;2022-09-16T03:52:09;100107.16;;;11.16;99.61
58927;BME280;44712;52.530;9.760;2022-09-16T03:54:39;100099.81;;;11.21;99.41
58927;BME280;44712;52.530;9.760;2022-09-16T03:57:05;100093.41;;;11.26;98.90
58927;BME280;44712;52.530;9.760;2022-09-16T03:59:34;100093.47;;;11.22;99.03
58927;BME280;44712;52.530;9.760;2022-09-16T04:02:02;100084.38;;;11.25;98.97
58927;BME280;44712;52.530;9.760;2022-09-16T04:04:29;100099.78;;;11.23;98.85
58927;BME280;44712;52.530;9.760;2022-09-16T04:06:55;100095.31;;;11.20;99.35
58927;BME280;44712;52.530;9.760;2022-09-16T04:09:22;100096.19;;;11.22;98.93
58927;BME280;44712;52.530;9.760;2022-09-16T04:11:49;100095.28;;;11.22;99.45
58927;BME280;44712;52.530;9.760;2022-09-16T04:14:16;100091.66;;;11.23;98.87
58927;BME280;44712;52.530;9.760;2022-09-16T04:16:42;100096.00;;;11.29;98.70
58927;BME280;44712;52.530;9.760;2022-09-16T04:19:12;100093.44;;;11.24;98.72
58927;BME280;44712;52.530;9.760;2022-09-16T04:21:41;100090.78;;;11.22;99.00
58927;BME280;44712;52.530;9.760;2022-09-16T04:24:08;100093.44;;;11.24;99.01
58927;BME280;44712;52.530;9.760;2022-09-16T04:26:39;100095.13;;;11.28;99.19
58927;BME280;44712;52.530;9.760;2022-09-16T04:29:06;100084.38;;;11.25;98.85
58927;BME280;44712;52.530;9.760;2022-09-16T04:31:33;100098.78;;;11.27;98.55
58927;BME280;44712;52.530;9.760;2022-09-16T04:34:01;100088.84;;;11.28;98.85
58927;BME280;44712;52.530;9.760;2022-09-16T04:36:28;100103.22;;;11.30;98.36
58927;BME280;44712;52.530;9.760;2022-09-16T04:38:54;100095.22;;;11.25;98.59
58927;BME280;44712;52.530;9.760;2022-09-16T04:41:23;100088.03;;;11.24;98.15
58927;BME280;44712;52.530;9.760;2022-09-16T04:43:59;100088.84;;;11.28;98.42
58927;BME280;44712;52.530;9.760;2022-09-16T04:46:28;100093.41;;;11.26;97.74
58927;BME280;44712;52.530;9.760;2022-09-16T04:48:55;100077.25;;;11.21;98.07
58927;BME280;44712;52.530;9.760;2022-09-16T04:51:27;100078.03;;;11.26;98.00
58927;BME280;44712;52.530;9.760;2022-09-16T04:53:55;100080.72;;;11.28;97.33
58927;BME280;44712;52.530;9.760;2022-09-16T04:56:28;100089.88;;;11.22;97.55
58927;BME280;44712;52.530;9.760;2022-09-16T04:59:02;100086.22;;;11.23;97.44
58927;BME280;44712;52.530;9.760;2022-09-16T05:01:31;100097.06;;;11.23;97.38
58927;BME280;44712;52.530;9.760;2022-09-16T05:04:08;100084.53;;;11.19;97.52
58927;BME280;44712;52.530;9.760;2022-09-16T05:06:38;100090.78;;;11.21;97.53
58927;BME280;44712;52.530;9.760;2022-09-16T05:09:06;100091.66;;;11.23;97.78
58927;BME280;44712;52.530;9.760;2022-09-16T05:11:35;100092.56;;;11.22;97.46
58927;BME280;44712;52.530;9.760;2022-09-16T05:14:11;100087.94;;;11.27;97.98
58927;BME280;44712;52.530;9.760;2022-09-16T05:16:38;100086.16;;;11.26;97.19
58927;BME280;44712;52.530;9.760;2022-09-16T05:19:05;100088.06;;;11.21;97.56
58927;BME280;44712;52.530;9.760;2022-09-16T05:21:34;100090.03;;;11.16;97.96
58927;BME280;44712;52.530;9.760;2022-09-16T05:24:03;100077.44;;;11.15;98.37
58927;BME280;44712;52.530;9.760;2022-09-16T05:26:31;100084.78;;;11.10;98.79
58927;BME280;44712;52.530;9.760;2022-09-16T05:29:02;100081.19;;;11.08;99.08
58927;BME280;44712;52.530;9.760;2022-09-16T05:31:32;100082.25;;;11.02;99.10
58927;BME280;44712;52.530;9.760;2022-09-16T05:34:16;100085.00;;;11.00;99.01
58927;BME280;44712;52.530;9.760;2022-09-16T05:36:44;100079.69;;;10.97;99.74
58927;BME280;44712;52.530;9.760;2022-09-16T05:39:14;100085.09;;;10.97;99.46
58927;BME280;44712;52.530;9.760;2022-09-16T05:41:56;100086.09;;;10.93;100.00
58927;BME280;44712;52.530;9.760;2022-09-16T05:44:24;100074.25;;;10.97;100.00
58927;BME280;44712;52.530;9.760;2022-09-16T05:46:52;100075.03;;;11.01;100.00
58927;BME280;44712;52.530;9.760;2022-09-16T05:49:19;100081.38;;;11.01;100.00
58927;BME280;44712;52.530;9.760;2022-09-16T05:51:47;100079.50;;;11.03;99.79
58927;BME280;44712;52.530;9.760;2022-09-16T05:54:14;100074.09;;;11.03;99.77
58927;BME280;44712;52.530;9.760;2022-09-16T05:56:43;100073.13;;;11.06;99.52
58927;BME280;44712;52.530;9.760;2022-09-16T05:59:12;100083.94;;;11.06;99.24
58927;BME280;44712;52.530;9.760;2022-09-16T06:01:39;100083.13;;;11.04;99.39
58927;BME280;44712;52.530;9.760;2022-09-16T06:04:08;100075.78;;;11.08;99.39
58927;BME280;44712;52.530;9.760;2022-09-16T06:06:41;100092.91;;;11.10;99.14
58927;BME280;44712;52.530;9.760;2022-09-16T06:09:15;100084.69;;;11.13;99.30
58927;BME280;44712;52.530;9.760;2022-09-16T06:11:44;100089.03;;;11.20;98.93
58927;BME280;44712;52.530;9.760;2022-09-16T06:14:12;100084.31;;;11.28;98.49
58927;BME280;44712;52.530;9.760;2022-09-16T06:16:39;100095.03;;;11.31;98.67
58927;BME280;44712;52.530;9.760;2022-09-16T06:19:09;100086.84;;;11.34;98.61
58927;BME280;44712;52.530;9.760;2022-09-16T06:21:36;100082.28;;;11.36;98.00
58927;BME280;44712;52.530;9.760;2022-09-16T06:24:04;100081.09;;;11.47;97.08
58927;BME280;44712;52.530;9.760;2022-09-16T06:26:36;100083.00;;;11.43;96.00
58927;BME280;44712;52.530;9.760;2022-09-16T06:29:03;100085.66;;;11.45;95.86
58927;BME280;44712;52.530;9.760;2022-09-16T06:31:31;100083.81;;;11.47;95.63
58927;BME280;44712;52.530;9.760;2022-09-16T06:33:59;100091.16;;;11.42;95.74
58927;BME280;44712;52.530;9.760;2022-09-16T06:36:28;100093.09;;;11.36;96.03
58927;BME280;44712;52.530;9.760;2022-09-16T06:38:55;100087.69;;;11.36;96.48
58927;BME280;44712;52.530;9.760;2022-09-16T06:41:23;100087.44;;;11.46;95.56
58927;BME280;44712;52.530;9.760;2022-09-16T06:43:50;100089.22;;;11.47;94.88
58927;BME280;44712;52.530;9.760;2022-09-16T06:46:19;100081.00;;;11.50;95.10
58927;BME280;44712;52.530;9.760;2022-09-16T06:48:48;100086.38;;;11.51;94.69
58927;BME280;44712;52.530;9.760;2022-09-16T06:51:23;100085.50;;;11.51;95.52
58927;BME280;44712;52.530;9.760;2022-09-16T06:53:50;100089.03;;;11.54;95.59
58927;BME280;44712;52.530;9.760;2022-09-16T06:56:19;100088.06;;;11.55;94.42
58927;BME280;44712;52.530;9.760;2022-09-16T06:58:49;100091.56;;;11.61;94.73
58927;BME280;44712;52.530;9.760;2022-09-16T07:01:23;100087.88;;;11.63;94.90
58927;BME280;44712;52.530;9.760;2022-09-16T07:03:56;100090.44;;;11.69;94.32
58927;BME280;44712;52.530;9.760;2022-09-16T07:06:24;100092.03;;;11.77;93.59
58927;BME280;44712;52.530;9.760;2022-09-16T07:09:13;100086.47;;;11.81;93.12
58927;BME280;44712;52.530;9.760;2022-09-16T07:11:39;100089.19;;;11.81;93.39
58927;BME280;44712;52.530;9.760;2022-09-16T07:14:07;100084.66;;;11.82;93.35
58927;BME280;44712;52.530;9.760;2022-09-16T07:16:34;100090.69;;;11.92;93.31
58927;BME280;44712;52.530;9.760;2022-09-16T07:19:01;100095.13;;;11.94;92.42
58927;BME280;44712;52.530;9.760;2022-09-16T07:21:28;100086.97;;;11.96;92.40
58927;BME280;44712;52.530;9.760;2022-09-16T07:24:00;100090.34;;;12.05;91.95
58927;BME280;44712;52.530;9.760;2022-09-16T07:26:30;100089.41;;;12.07;90.76
58927;BME280;44712;52.530;9.760;2022-09-16T07:29:04;100083.88;;;12.10;89.68
58927;BME280;44712;52.530;9.760;2022-09-16T07:31:34;100095.41;;;12.18;90.07
58927;BME280;44712;52.530;9.760;2022-09-16T07:34:04;100099.69;;;12.25;90.53
58927;BME280;44712;52.530;9.760;2022-09-16T07:36:34;100091.38;;;12.31;89.70
58927;BME280;44712;52.530;9.760;2022-09-16T07:39:01;100095.78;;;12.35;89.72
58927;BME280;44712;52.530;9.760;2022-09-16T07:41:32;100101.03;;;12.42;89.87
58927;BME280;44712;52.530;9.760;2022-09-16T07:43:59;100108.84;;;12.52;89.26
58927;BME280;44712;52.530;9.760;2022-09-16T07:46:31;100104.28;;;12.53;85.90
58927;BME280;44712;52.530;9.760;2022-09-16T07:49:00;100096.88;;;12.58;85.02
58927;BME280;44712;52.530;9.760;2022-09-16T07:51:31;100099.41;;;12.64;84.89
58927;BME280;44712;52.530;9.760;2022-09-16T07:54:01;100092.09;;;12.66;83.53
58927;BME280;44712;52.530;9.760;2022-09-16T07:56:35;100092.75;;;12.75;84.08
58927;BME280;44712;52.530;9.760;2022-09-16T07:59:04;100096.94;;;12.85;84.72
58927;BME280;44712;52.530;9.760;2022-09-16T08:01:32;100102.94;;;12.96;83.98
58927;BME280;44712;52.530;9.760;2022-09-16T08:03:59;100098.81;;;13.11;82.51
58927;BME280;44712;52.530;9.760;2022-09-16T08:06:29;100096.41;;;13.29;81.22
58927;BME280;44712;52.530;9.760;2022-09-16T08:08:59;100107.03;;;13.36;77.84
58927;BME280;44712;52.530;9.760;2022-09-16T08:11:49;100109.34;;;13.49;77.52
58927;BME280;44712;52.530;9.760;2022-09-16T08:14:15;100096.97;;;13.65;78.60
58927;BME280;44712;52.530;9.760;2022-09-16T08:16:42;100098.75;;;13.66;76.41
58927;BME280;44712;52.530;9.760;2022-09-16T08:19:10;100096.88;;;13.68;76.66
58927;BME280;44712;52.530;9.760;2022-09-16T08:21:37;100103.19;;;13.69;76.84
58927;BME280;44712;52.530;9.760;2022-09-16T08:24:08;100100.47;;;13.69;76.41
58927;BME280;44712;52.530;9.760;2022-09-16T08:26:35;100097.88;;;13.66;74.63
58927;BME280;44712;52.530;9.760;2022-09-16T08:29:02;100098.94;;;13.60;73.43
58927;BME280;44712;52.530;9.760;2022-09-16T08:31:36;100088.97;;;13.61;74.37
58927;BME280;44712;52.530;9.760;2022-09-16T08:34:04;100102.19;;;13.71;74.43
58927;BME280;44712;52.530;9.760;2022-09-16T08:36:32;100099.88;;;13.86;73.79
58927;BME280;44712;52.530;9.760;2022-09-16T08:39:00;100095.84;;;13.96;74.37
58927;BME280;44712;52.530;9.760;2022-09-16T08:44:51;100089.84;;;14.35;72.67
58927;BME280;44712;52.530;9.760;2022-09-16T08:47:45;100087.13;;;14.35;72.19
58927;BME280;44712;52.530;9.760;2022-09-16T08:50:25;100093.88;;;14.49;71.10
58927;BME280;44712;52.530;9.760;2022-09-16T08:52:52;100088.28;;;14.52;71.12
58927;BME280;44712;52.530;9.760;2022-09-16T08:55:36;100081.59;;;14.61;70.57
58927;BME280;44712;52.530;9.760;2022-09-16T08:58:13;100092.78;;;14.53;70.44
58927;BME280;44712;52.530;9.760;2022-09-16T09:00:42;100088.47;;;14.71;70.00
58927;BME280;44712;52.530;9.760;2022-09-16T09:03:18;100085.56;;;14.76;67.98
58927;BME280;44712;52.530;9.760;2022-09-16T09:05:58;100087.22;;;14.80;68.13
58927;BME280;44712;52.530;9.760;2022-09-16T09:11:16;100094.97;;;15.13;68.24
58927;BME280;44712;52.530;9.760;2022-09-16T09:13:55;100093.31;;;15.09;65.96
58927;BME280;44712;52.530;9.760;2022-09-16T09:16:51;100088.28;;;15.20;64.59
58927;BME280;44712;52.530;9.760;2022-09-16T09:19:34;100094.19;;;15.31;66.31
58927;BME280;44712;52.530;9.760;2022-09-16T09:28:15;100083.59;;;15.44;63.05
58927;BME280;44712;52.530;9.760;2022-09-16T09:30:59;100107.56;;;15.58;64.23
58927;BME280;44712;52.530;9.760;2022-09-16T09:41:37;100094.97;;;15.13;66.53
58927;BME280;44712;52.530;9.760;2022-09-16T09:46:45;100082.78;;;14.99;64.15
58927;BME280;44712;52.530;9.760;2022-09-16T09:49:17;100085.25;;;15.05;64.21
58927;BME280;44712;52.530;9.760;2022-09-16T09:51:56;100083.81;;;14.97;64.59
58927;BME280;44712;52.530;9.760;2022-09-16T09:54:29;100070.50;;;14.89;63.97
58927;BME280;44712;52.530;9.760;2022-09-16T09:57:13;100073.41;;;15.06;64.83
58927;BME280;44712;52.530;9.760;2022-09-16T09:59:48;100076.69;;;15.15;64.20
58927;BME280;44712;52.530;9.760;2022-09-16T10:02:21;100070.97;;;15.21;63.12
58927;BME280;44712;52.530;9.760;2022-09-16T10:04:48;100071.06;;;15.19;62.37
58927;BME280;44712;52.530;9.760;2022-09-16T10:07:21;100075.75;;;15.16;61.19
58927;BME280;44712;52.530;9.760;2022-09-16T10:09:52;100067.03;;;15.28;61.32
58927;BME280;44712;52.530;9.760;2022-09-16T10:12:28;100068.03;;;15.26;61.97
58927;BME280;44712;52.530;9.760;2022-09-16T10:14:56;100060.09;;;15.21;60.85
58927;BME280;44712;52.530;9.760;2022-09-16T10:17:23;100059.78;;;15.27;60.45
58927;BME280;44712;52.530;9.760;2022-09-16T10:22:28;100062.34;;;15.73;59.86
58927;BME280;44712;52.530;9.760;2022-09-16T10:27:31;100062.16;;;15.98;58.14
58927;BME280;44712;52.530;9.760;2022-09-16T10:30:03;100050.91;;;15.85;54.94
58927;BME280;44712;52.530;9.760;2022-09-16T10:32:36;100049.91;;;16.07;55.85
58927;BME280;44712;52.530;9.760;2022-09-16T10:35:06;100054.50;;;16.26;55.73
58927;BME280;44712;52.530;9.760;2022-09-16T10:37:33;100048.69;;;16.33;54.43
58927;BME280;44712;52.530;9.760;2022-09-16T10:40:00;100053.91;;;16.00;54.38
58927;BME280;44712;52.530;9.760;2022-09-16T10:42:29;100055.50;;;15.85;55.49
58927;BME280;44712;52.530;9.760;2022-09-16T10:45:03;100056.69;;;15.78;54.74
58927;BME280;44712;52.530;9.760;2022-09-16T10:47:39;100064.06;;;15.96;55.11
58927;BME280;44712;52.530;9.760;2022-09-16T10:50:07;100052.19;;;15.97;56.03
58927;BME280;44712;52.530;9.760;2022-09-16T10:52:42;100045.81;;;16.17;56.25
58927;BME280;44712;52.530;9.760;2022-09-16T10:57:46;100023.00;;;16.37;55.15
58927;BME280;44712;52.530;9.760;2022-09-16T11:05:41;100035.84;;;16.35;52.49
58927;BME280;44712;52.530;9.760;2022-09-16T11:11:31;100024.22;;;15.92;52.88
58927;BME280;44712;52.530;9.760;2022-09-16T11:17:14;100033.84;;;16.01;53.25
58927;BME280;44712;52.530;9.760;2022-09-16T11:22:46;100013.16;;;15.95;52.21
58927;BME280;44712;52.530;9.760;2022-09-16T11:25:41;100017.09;;;16.09;52.57
58927;BME280;44712;52.530;9.760;2022-09-16T11:33:47;100001.59;;;16.28;52.08
58927;BME280;44712;52.530;9.760;2022-09-16T11:36:38;100003.16;;;16.15;50.76
58927;BME280;44712;52.530;9.760;2022-09-16T11:42:45;99997.84;;;16.31;50.66
58927;BME280;44712;52.530;9.760;2022-09-16T11:45:25;99997.31;;;16.42;50.08
58927;BME280;44712;52.530;9.760;2022-09-16T11:51:09;99995.47;;;16.61;48.86
58927;BME280;44712;52.530;9.760;2022-09-16T11:56:46;99999.47;;;16.71;46.14
58927;BME280;44712;52.530;9.760;2022-09-16T11:59:26;100003.28;;;16.69;46.34
58927;BME280;44712;52.530;9.760;2022-09-16T12:02:01;99986.00;;;16.68;46.31
58927;BME280;44712;52.530;9.760;2022-09-16T12:04:33;99971.66;;;16.82;47.42
58927;BME280;44712;52.530;9.760;2022-09-16T12:07:23;99971.78;;;16.98;46.86
58927;BME280;44712;52.530;9.760;2022-09-16T12:09:56;99969.66;;;17.03;44.98
58927;BME280;44712;52.530;9.760;2022-09-16T12:12:30;99974.44;;;17.00;44.89
58927;BME280;44712;52.530;9.760;2022-09-16T12:15:06;99970.22;;;17.10;44.49
58927;BME280;44712;52.530;9.760;2022-09-16T12:17:42;99965.50;;;17.14;44.24
58927;BME280;44712;52.530;9.760;2022-09-16T12:20:18;99965.66;;;17.28;44.35
58927;BME280;44712;52.530;9.760;2022-09-16T12:26:08;100023.34;;;16.49;52.92
58927;BME280;44712;52.530;9.760;2022-09-16T12:28:45;100034.56;;;16.04;60.25
58927;BME280;44712;52.530;9.760;2022-09-16T12:31:20;100028.59;;;15.34;65.30
58927;BME280;44712;52.530;9.760;2022-09-16T12:33:57;100030.19;;;14.97;68.15
58927;BME280;44712;52.530;9.760;2022-09-16T12:36:29;100032.03;;;14.75;69.57
58927;BME280;44712;52.530;9.760;2022-09-16T12:38:58;100014.22;;;14.44;70.58
58927;BME280;44712;52.530;9.760;2022-09-16T12:44:35;100023.09;;;14.01;70.19
58927;BME280;44712;52.530;9.760;2022-09-16T13:01:08;99997.03;;;14.65;65.68
58927;BME280;44712;52.530;9.760;2022-09-16T13:03:42;99992.81;;;14.79;62.17
58927;BME280;44712;52.530;9.760;2022-09-16T13:06:20;99996.22;;;15.06;58.26
58927;BME280;44712;52.530;9.760;2022-09-16T13:08:50;99987.03;;;15.29;58.70
58927;BME280;44712;52.530;9.760;2022-09-16T13:11:20;99980.00;;;15.65;53.90
58927;BME280;44712;52.530;9.760;2022-09-16T13:14:21;99973.78;;;15.82;51.64
58927;BME280;44712;52.530;9.760;2022-09-16T13:16:55;99986.59;;;15.80;53.50
58927;BME280;44712;52.530;9.760;2022-09-16T13:22:30;99981.38;;;15.54;51.92
58927;BME280;44712;52.530;9.760;2022-09-16T13:25:27;99983.06;;;15.36;51.77
58927;BME280;44712;52.530;9.760;2022-09-16T13:28:00;99981.03;;;15.42;52.23
58927;BME280;44712;52.530;9.760;2022-09-16T13:30:34;99972.78;;;15.43;51.19
58927;BME280;44712;52.530;9.760;2022-09-16T13:33:20;99972.09;;;15.59;52.68
58927;BME280;44712;52.530;9.760;2022-09-16T13:38:41;99967.00;;;15.90;51.68
58927;BME280;44712;52.530;9.760;2022-09-16T13:41:12;99974.53;;;16.04;52.00
58927;BME280;44712;52.530;9.760;2022-09-16T13:46:25;99951.38;;;16.13;51.01
58927;BME280;44712;52.530;9.760;2022-09-16T13:51:44;99950.78;;;16.26;50.35
58927;BME280;44712;52.530;9.760;2022-09-16T13:57:04;99946.75;;;16.52;50.50
58927;BME280;44712;52.530;9.760;2022-09-16T13:59:42;99942.44;;;16.65;51.16
58927;BME280;44712;52.530;9.760;2022-09-16T14:07:45;99930.66;;;16.46;50.98
58927;BME280;44712;52.530;9.760;2022-09-16T14:13:09;99920.53;;;16.30;51.57
58927;BME280;44712;52.530;9.760;2022-09-16T14:15:43;99919.81;;;16.08;51.64
58927;BME280;44712;52.530;9.760;2022-09-16T14:18:12;99924.16;;;16.12;51.23
58927;BME280;44712;52.530;9.760;2022-09-16T14:23:25;99922.16;;;16.15;51.77
58927;BME280;44712;52.530;9.760;2022-09-16T14:25:52;99928.19;;;16.22;49.79
58927;BME280;44712;52.530;9.760;2022-09-16T14:30:56;99927.19;;;16.05;50.62
58927;BME280;44712;52.530;9.760;2022-09-16T14:33:39;99924.72;;;15.99;51.19
58927;BME280;44712;52.530;9.760;2022-09-16T14:36:29;99918.31;;;16.00;51.63
58927;BME280;44712;52.530;9.760;2022-09-16T14:38:59;99914.13;;;15.93;49.86
58927;BME280;44712;52.530;9.760;2022-09-16T14:49:30;99919.34;;;15.98;54.39
58927;BME280;44712;52.530;9.760;2022-09-16T14:51:58;99920.25;;;15.98;54.19
58927;BME280;44712;52.530;9.760;2022-09-16T14:54:27;99900.66;;;15.90;54.89
58927;BME280;44712;52.530;9.760;2022-09-16T14:57:03;99905.19;;;15.89;54.80
58927;BME280;44712;52.530;9.760;2022-09-16T14:59:33;99904.41;;;15.87;55.45
58927;BME280;44712;52.530;9.760;2022-09-16T15:02:06;99910.47;;;15.73;55.97
58927;BME280;44712;52.530;9.760;2022-09-16T15:04:37;99900.47;;;15.74;56.58
58927;BME280;44712;52.530;9.760;2022-09-16T15:07:14;99900.75;;;15.68;56.78
58927;BME280;44712;52.530;9.760;2022-09-16T15:09:47;99891.47;;;15.72;56.89
58927;BME280;44712;52.530;9.760;2022-09-16T15:12:28;99893.94;;;15.77;57.53
58927;BME280;44712;52.530;9.760;2022-09-16T15:14:56;99894.53;;;15.85;55.28
58927;BME280;44712;52.530;9.760;2022-09-16T15:17:25;99889.88;;;15.87;52.92
58927;BME280;44712;52.530;9.760;2022-09-16T15:19:57;99888.50;;;15.77;52.10
58927;BME280;44712;52.530;9.760;2022-09-16T15:22:25;99889.59;;;15.72;54.67
58927;BME280;44712;52.530;9.760;2022-09-16T15:24:55;99879.59;;;15.73;52.47
58927;BME280;44712;52.530;9.760;2022-09-16T15:27:27;99884.47;;;15.66;51.99
58927;BME280;44712;52.530;9.760;2022-09-16T15:29:57;99896.16;;;15.68;51.21
58927;BME280;44712;52.530;9.760;2022-09-16T15:32:27;99892.91;;;15.60;51.03
58927;BME280;44712;52.530;9.760;2022-09-16T15:35:10;99898.53;;;15.57;50.98
58927;BME280;44712;52.530;9.760;2022-09-16T15:37:40;99898.69;;;15.54;51.71
58927;BME280;44712;52.530;9.760;2022-09-16T15:42:46;99900.72;;;15.49;52.95
58927;BME280;44712;52.530;9.760;2022-09-16T15:45:17;99908.25;;;15.44;53.36
58927;BME280;44712;52.530;9.760;2022-09-16T15:47:53;99890.53;;;15.33;53.36
58927;BME280;44712;52.530;9.760;2022-09-16T15:50:22;99903.22;;;15.34;53.72